sensor_id;sensor_type;location;lat;lon;timestamp;temperature;humidity
80212;DHT22;70434;37.956;23.722;2023-07-22T00:00:05;34.10;36.40
80212;DHT22;70434;37.956;23.722;2023-07-22T00:02:31;34.10;36.40
80212;DHT22;70434;37.956;23.722;2023-07-22T00:04:57;34.10;36.10
80212;DHT22;70434;37.956;23.722;2023-07-22T00:07:23;34.10;35.60
80212;DHT22;70434;37.956;23.722;2023-07-22T00:09:48;34.10;35.50
80212;DHT22;70434;37.956;23.722;2023-07-22T00:12:15;34.20;35.20
80212;DHT22;70434;37.956;23.722;2023-07-22T00:14:41;34.10;35.50
80212;DHT22;70434;37.956;23.722;2023-07-22T00:17:07;34.10;35.30
80212;DHT22;70434;37.956;23.722;2023-07-22T00:19:33;34.10;35.30
80212;DHT22;70434;37.956;23.722;2023-07-22T00:21:59;34.00;35.30
80212;DHT22;70434;37.956;23.722;2023-07-22T00:24:25;34.00;35.10
80212;DHT22;70434;37.956;23.722;2023-07-22T00:26:51;34.00;35.10
80212;DHT22;70434;37.956;23.722;2023-07-22T00:29:16;34.10;35.40
80212;DHT22;70434;37.956;23.722;2023-07-22T00:31:43;34.10;35.30
80212;DHT22;70434;37.956;23.722;2023-07-22T00:34:09;34.20;35.10
80212;DHT22;70434;37.956;23.722;2023-07-22T00:36:35;34.20;34.80
80212;DHT22;70434;37.956;23.722;2023-07-22T00:39:00;34.20;34.70
80212;DHT22;70434;37.956;23.722;2023-07-22T00:41:27;34.20;35.00
80212;DHT22;70434;37.956;23.722;2023-07-22T00:43:54;34.20;34.80
80212;DHT22;70434;37.956;23.722;2023-07-22T00:46:20;34.20;34.60
80212;DHT22;70434;37.956;23.722;2023-07-22T00:48:46;34.20;34.50
80212;DHT22;70434;37.956;23.722;2023-07-22T00:51:12;34.20;34.60
80212;DHT22;70434;37.956;23.722;2023-07-22T00:53:38;34.20;34.80
80212;DHT22;70434;37.956;23.722;2023-07-22T00:56:04;34.20;34.80
80212;DHT22;70434;37.956;23.722;2023-07-22T00:58:30;34.10;34.80
80212;DHT22;70434;37.956;23.722;2023-07-22T01:00:56;34.20;34.80
80212;DHT22;70434;37.956;23.722;2023-07-22T01:03:22;34.10;34.80
80212;DHT22;70434;37.956;23.722;2023-07-22T01:05:48;34.10;34.80
80212;DHT22;70434;37.956;23.722;2023-07-22T01:08:14;34.00;35.10
80212;DHT22;70434;37.956;23.722;2023-07-22T01:10:40;34.00;35.10
80212;DHT22;70434;37.956;23.722;2023-07-22T01:13:07;34.00;35.50
80212;DHT22;70434;37.956;23.722;2023-07-22T01:15:33;34.00;35.80
80212;DHT22;70434;37.956;23.722;2023-07-22T01:18:00;34.00;35.70
80212;DHT22;70434;37.956;23.722;2023-07-22T01:20:29;34.00;35.90
80212;DHT22;70434;37.956;23.722;2023-07-22T01:22:56;34.00;36.20
80212;DHT22;70434;37.956;23.722;2023-07-22T01:25:22;33.90;36.80
80212;DHT22;70434;37.956;23.722;2023-07-22T01:27:52;33.80;37.20
80212;DHT22;70434;37.956;23.722;2023-07-22T01:30:18;33.80;36.90
80212;DHT22;70434;37.956;23.722;2023-07-22T01:32:46;33.80;37.20
80212;DHT22;70434;37.956;23.722;2023-07-22T01:35:12;33.90;37.20
80212;DHT22;70434;37.956;23.722;2023-07-22T01:37:38;33.90;37.40
80212;DHT22;70434;37.956;23.722;2023-07-22T01:40:05;33.80;36.90
80212;DHT22;70434;37.956;23.722;2023-07-22T01:42:38;33.80;37.20
80212;DHT22;70434;37.956;23.722;2023-07-22T01:45:06;33.70;37.20
80212;DHT22;70434;37.956;23.722;2023-07-22T01:47:34;33.70;37.10
80212;DHT22;70434;37.956;23.722;2023-07-22T01:50:01;33.80;37.20
80212;DHT22;70434;37.956;23.722;2023-07-22T01:52:27;33.80;37.00
80212;DHT22;70434;37.956;23.722;2023-07-22T01:54:53;33.80;37.00
80212;DHT22;70434;37.956;23.722;2023-07-22T01:57:18;33.70;37.00
80212;DHT22;70434;37.956;23.722;2023-07-22T01:59:44;33.70;36.90
80212;DHT22;70434;37.956;23.722;2023-07-22T02:02:10;33.70;36.60
80212;DHT22;70434;37.956;23.722;2023-07-22T02:04:35;33.70;36.30
80212;DHT22;70434;37.956;23.722;2023-07-22T02:07:01;33.60;36.50
80212;DHT22;70434;37.956;23.722;2023-07-22T02:09:27;33.60;36.50
80212;DHT22;70434;37.956;23.722;2023-07-22T02:11:53;33.60;36.30
80212;DHT22;70434;37.956;23.722;2023-07-22T02:14:19;33.60;36.50
80212;DHT22;70434;37.956;23.722;2023-07-22T02:16:45;33.70;37.00
80212;DHT22;70434;37.956;23.722;2023-07-22T02:19:10;33.70;37.10
80212;DHT22;70434;37.956;23.722;2023-07-22T02:21:36;33.70;37.10
80212;DHT22;70434;37.956;23.722;2023-07-22T02:24:02;33.70;37.20
80212;DHT22;70434;37.956;23.722;2023-07-22T02:26:28;33.70;37.10
80212;DHT22;70434;37.956;23.722;2023-07-22T02:28:53;33.60;36.90
80212;DHT22;70434;37.956;23.722;2023-07-22T02:31:22;33.70;36.70
80212;DHT22;70434;37.956;23.722;2023-07-22T02:33:48;33.70;36.40
80212;DHT22;70434;37.956;23.722;2023-07-22T02:36:14;33.70;36.40
80212;DHT22;70434;37.956;23.722;2023-07-22T02:38:39;33.60;37.00
80212;DHT22;70434;37.956;23.722;2023-07-22T02:41:05;33.60;37.30
80212;DHT22;70434;37.956;23.722;2023-07-22T02:43:33;33.50;37.20
80212;DHT22;70434;37.956;23.722;2023-07-22T02:46:02;33.50;37.20
80212;DHT22;70434;37.956;23.722;2023-07-22T02:48:28;33.50;36.90
80212;DHT22;70434;37.956;23.722;2023-07-22T02:50:54;33.50;37.00
80212;DHT22;70434;37.956;23.722;2023-07-22T02:53:20;33.50;36.90
80212;DHT22;70434;37.956;23.722;2023-07-22T02:55:46;33.50;36.90
80212;DHT22;70434;37.956;23.722;2023-07-22T02:58:12;33.40;36.90
80212;DHT22;70434;37.956;23.722;2023-07-22T03:00:38;33.40;36.80
80212;DHT22;70434;37.956;23.722;2023-07-22T03:03:04;33.30;36.90
80212;DHT22;70434;37.956;23.722;2023-07-22T03:05:31;33.20;37.20
80212;DHT22;70434;37.956;23.722;2023-07-22T03:07:58;33.10;37.30
80212;DHT22;70434;37.956;23.722;2023-07-22T03:10:25;33.20;37.30
80212;DHT22;70434;37.956;23.722;2023-07-22T03:12:51;33.20;37.10
80212;DHT22;70434;37.956;23.722;2023-07-22T03:15:21;33.20;37.10
80212;DHT22;70434;37.956;23.722;2023-07-22T03:17:49;33.10;37.30
80212;DHT22;70434;37.956;23.722;2023-07-22T03:20:15;33.10;37.20
80212;DHT22;70434;37.956;23.722;2023-07-22T03:22:45;33.10;37.00
80212;DHT22;70434;37.956;23.722;2023-07-22T03:25:12;33.20;37.00
80212;DHT22;70434;37.956;23.722;2023-07-22T03:27:39;33.20;37.00
80212;DHT22;70434;37.956;23.722;2023-07-22T03:30:05;33.20;37.00
80212;DHT22;70434;37.956;23.722;2023-07-22T03:32:36;33.20;36.30
80212;DHT22;70434;37.956;23.722;2023-07-22T03:35:02;33.20;36.20
80212;DHT22;70434;37.956;23.722;2023-07-22T03:37:28;33.10;34.70
80212;DHT22;70434;37.956;23.722;2023-07-22T03:39:54;33.10;35.30
80212;DHT22;70434;37.956;23.722;2023-07-22T03:42:20;33.10;35.20
80212;DHT22;70434;37.956;23.722;2023-07-22T03:44:46;33.10;35.10
80212;DHT22;70434;37.956;23.722;2023-07-22T03:47:12;33.10;34.80
80212;DHT22;70434;37.956;23.722;2023-07-22T03:49:37;33.10;34.80
80212;DHT22;70434;37.956;23.722;2023-07-22T03:52:03;33.10;34.50
80212;DHT22;70434;37.956;23.722;2023-07-22T03:54:29;33.10;34.40
80212;DHT22;70434;37.956;23.722;2023-07-22T03:56:55;33.10;34.30
80212;DHT22;70434;37.956;23.722;2023-07-22T03:59:20;33.10;34.30
80212;DHT22;70434;37.956;23.722;2023-07-22T04:01:46;33.10;34.20
80212;DHT22;70434;37.956;23.722;2023-07-22T04:04:13;33.10;34.20
80212;DHT22;70434;37.956;23.722;2023-07-22T04:06:38;33.20;34.30
80212;DHT22;70434;37.956;23.722;2023-07-22T04:09:04;33.10;34.40
80212;DHT22;70434;37.956;23.722;2023-07-22T04:11:30;33.10;34.60
80212;DHT22;70434;37.956;23.722;2023-07-22T04:13:56;33.10;34.70
80212;DHT22;70434;37.956;23.722;2023-07-22T04:16:22;33.10;35.10
80212;DHT22;70434;37.956;23.722;2023-07-22T04:18:47;33.10;35.00
80212;DHT22;70434;37.956;23.722;2023-07-22T04:21:13;33.10;35.20
80212;DHT22;70434;37.956;23.722;2023-07-22T04:23:39;33.20;35.20
80212;DHT22;70434;37.956;23.722;2023-07-22T04:26:04;33.30;35.00
80212;DHT22;70434;37.956;23.722;2023-07-22T04:28:33;33.30;34.60
80212;DHT22;70434;37.956;23.722;2023-07-22T04:30:59;33.30;34.30
80212;DHT22;70434;37.956;23.722;2023-07-22T04:33:26;33.30;34.00
80212;DHT22;70434;37.956;23.722;2023-07-22T04:35:58;33.30;34.00
80212;DHT22;70434;37.956;23.722;2023-07-22T04:38:24;33.20;34.10
80212;DHT22;70434;37.956;23.722;2023-07-22T04:40:50;33.10;34.00
80212;DHT22;70434;37.956;23.722;2023-07-22T04:43:16;33.20;34.20
80212;DHT22;70434;37.956;23.722;2023-07-22T04:45:45;33.30;34.60
80212;DHT22;70434;37.956;23.722;2023-07-22T04:54:41;33.40;33.40
80212;DHT22;70434;37.956;23.722;2023-07-22T04:57:07;33.40;33.20
80212;DHT22;70434;37.956;23.722;2023-07-22T04:59:32;33.50;33.50
80212;DHT22;70434;37.956;23.722;2023-07-22T05:01:58;33.60;33.70
80212;DHT22;70434;37.956;23.722;2023-07-22T05:04:24;33.50;33.30
80212;DHT22;70434;37.956;23.722;2023-07-22T05:06:50;33.50;33.10
80212;DHT22;70434;37.956;23.722;2023-07-22T05:09:16;33.60;33.10
80212;DHT22;70434;37.956;23.722;2023-07-22T05:11:41;33.60;33.10
80212;DHT22;70434;37.956;23.722;2023-07-22T05:14:07;33.70;33.20
80212;DHT22;70434;37.956;23.722;2023-07-22T05:16:33;33.80;33.00
80212;DHT22;70434;37.956;23.722;2023-07-22T05:18:58;33.60;33.30
80212;DHT22;70434;37.956;23.722;2023-07-22T05:21:24;33.70;33.40
80212;DHT22;70434;37.956;23.722;2023-07-22T05:23:50;33.70;33.20
80212;DHT22;70434;37.956;23.722;2023-07-22T05:26:15;33.70;33.30
80212;DHT22;70434;37.956;23.722;2023-07-22T05:28:41;33.80;33.30
80212;DHT22;70434;37.956;23.722;2023-07-22T05:31:07;33.80;33.50
80212;DHT22;70434;37.956;23.722;2023-07-22T05:33:33;33.80;33.20
80212;DHT22;70434;37.956;23.722;2023-07-22T05:35:59;33.90;33.00
80212;DHT22;70434;37.956;23.722;2023-07-22T05:38:24;33.90;32.40
80212;DHT22;70434;37.956;23.722;2023-07-22T05:40:52;33.90;32.40
80212;DHT22;70434;37.956;23.722;2023-07-22T05:43:18;33.90;32.60
80212;DHT22;70434;37.956;23.722;2023-07-22T05:45:44;34.00;32.60
80212;DHT22;70434;37.956;23.722;2023-07-22T05:48:09;33.90;32.40
80212;DHT22;70434;37.956;23.722;2023-07-22T05:50:35;34.00;32.30
80212;DHT22;70434;37.956;23.722;2023-07-22T05:53:02;34.10;32.50
80212;DHT22;70434;37.956;23.722;2023-07-22T05:55:27;34.10;32.30
80212;DHT22;70434;37.956;23.722;2023-07-22T05:57:53;34.10;32.10
80212;DHT22;70434;37.956;23.722;2023-07-22T06:00:19;34.20;32.20
80212;DHT22;70434;37.956;23.722;2023-07-22T06:02:45;34.20;32.40
80212;DHT22;70434;37.956;23.722;2023-07-22T06:05:11;34.20;32.10
80212;DHT22;70434;37.956;23.722;2023-07-22T06:07:37;34.20;32.00
80212;DHT22;70434;37.956;23.722;2023-07-22T06:10:03;34.20;32.00
80212;DHT22;70434;37.956;23.722;2023-07-22T06:12:29;34.20;32.00
80212;DHT22;70434;37.956;23.722;2023-07-22T06:14:54;34.20;31.90
80212;DHT22;70434;37.956;23.722;2023-07-22T06:17:20;34.30;31.60
80212;DHT22;70434;37.956;23.722;2023-07-22T06:19:46;34.30;31.60
80212;DHT22;70434;37.956;23.722;2023-07-22T06:22:12;34.30;32.00
80212;DHT22;70434;37.956;23.722;2023-07-22T06:24:37;34.40;32.00
80212;DHT22;70434;37.956;23.722;2023-07-22T06:27:03;34.40;32.90
80212;DHT22;70434;37.956;23.722;2023-07-22T06:29:29;34.40;34.50
80212;DHT22;70434;37.956;23.722;2023-07-22T06:31:55;34.40;35.30
80212;DHT22;70434;37.956;23.722;2023-07-22T06:34:20;34.40;35.40
80212;DHT22;70434;37.956;23.722;2023-07-22T06:36:46;34.40;35.40
80212;DHT22;70434;37.956;23.722;2023-07-22T06:39:12;34.40;35.00
80212;DHT22;70434;37.956;23.722;2023-07-22T06:41:38;34.50;34.70
80212;DHT22;70434;37.956;23.722;2023-07-22T06:44:03;34.40;34.60
80212;DHT22;70434;37.956;23.722;2023-07-22T06:46:29;34.40;34.50
80212;DHT22;70434;37.956;23.722;2023-07-22T06:48:55;34.40;34.00
80212;DHT22;70434;37.956;23.722;2023-07-22T06:51:20;34.50;33.80
80212;DHT22;70434;37.956;23.722;2023-07-22T06:53:46;34.50;33.50
80212;DHT22;70434;37.956;23.722;2023-07-22T06:56:12;34.50;33.60
80212;DHT22;70434;37.956;23.722;2023-07-22T06:58:37;34.40;33.50
80212;DHT22;70434;37.956;23.722;2023-07-22T07:01:03;34.50;33.50
80212;DHT22;70434;37.956;23.722;2023-07-22T07:03:29;34.60;33.00
80212;DHT22;70434;37.956;23.722;2023-07-22T07:05:56;34.60;33.20
80212;DHT22;70434;37.956;23.722;2023-07-22T07:08:22;34.60;33.50
80212;DHT22;70434;37.956;23.722;2023-07-22T07:10:49;34.70;33.80
80212;DHT22;70434;37.956;23.722;2023-07-22T07:13:15;34.60;33.60
80212;DHT22;70434;37.956;23.722;2023-07-22T07:15:41;34.70;33.20
80212;DHT22;70434;37.956;23.722;2023-07-22T07:18:06;34.70;33.00
80212;DHT22;70434;37.956;23.722;2023-07-22T07:20:32;34.60;32.80
80212;DHT22;70434;37.956;23.722;2023-07-22T07:22:58;34.60;33.30
80212;DHT22;70434;37.956;23.722;2023-07-22T07:25:23;34.70;33.30
80212;DHT22;70434;37.956;23.722;2023-07-22T07:27:49;34.70;33.20
80212;DHT22;70434;37.956;23.722;2023-07-22T07:30:15;34.80;32.30
80212;DHT22;70434;37.956;23.722;2023-07-22T07:32:41;34.80;32.20
80212;DHT22;70434;37.956;23.722;2023-07-22T07:35:07;34.80;32.10
80212;DHT22;70434;37.956;23.722;2023-07-22T07:37:33;34.70;32.40
80212;DHT22;70434;37.956;23.722;2023-07-22T07:39:58;34.70;32.20
80212;DHT22;70434;37.956;23.722;2023-07-22T07:42:28;34.80;32.10
80212;DHT22;70434;37.956;23.722;2023-07-22T07:44:54;34.80;31.50
80212;DHT22;70434;37.956;23.722;2023-07-22T07:47:20;34.80;32.40
80212;DHT22;70434;37.956;23.722;2023-07-22T07:49:46;34.90;31.30
80212;DHT22;70434;37.956;23.722;2023-07-22T07:52:12;35.00;31.70
80212;DHT22;70434;37.956;23.722;2023-07-22T07:54:37;35.00;32.60
80212;DHT22;70434;37.956;23.722;2023-07-22T07:57:03;35.00;31.50
80212;DHT22;70434;37.956;23.722;2023-07-22T07:59:29;35.10;31.40
80212;DHT22;70434;37.956;23.722;2023-07-22T08:01:55;35.10;31.50
80212;DHT22;70434;37.956;23.722;2023-07-22T08:04:21;35.10;31.60
80212;DHT22;70434;37.956;23.722;2023-07-22T08:06:46;35.10;32.00
80212;DHT22;70434;37.956;23.722;2023-07-22T08:09:12;35.10;31.80
80212;DHT22;70434;37.956;23.722;2023-07-22T08:11:44;35.20;31.80
80212;DHT22;70434;37.956;23.722;2023-07-22T08:14:10;35.30;31.20
80212;DHT22;70434;37.956;23.722;2023-07-22T08:16:35;35.40;30.30
80212;DHT22;70434;37.956;23.722;2023-07-22T08:19:01;35.40;29.40
80212;DHT22;70434;37.956;23.722;2023-07-22T08:21:27;35.40;29.50
80212;DHT22;70434;37.956;23.722;2023-07-22T08:23:52;35.40;29.50
80212;DHT22;70434;37.956;23.722;2023-07-22T08:26:18;35.50;29.70
80212;DHT22;70434;37.956;23.722;2023-07-22T08:28:47;35.60;30.00
80212;DHT22;70434;37.956;23.722;2023-07-22T08:31:13;35.70;30.20
80212;DHT22;70434;37.956;23.722;2023-07-22T08:33:38;35.70;31.00
80212;DHT22;70434;37.956;23.722;2023-07-22T08:36:04;35.70;30.60
80212;DHT22;70434;37.956;23.722;2023-07-22T08:41:53;35.80;31.10
80212;DHT22;70434;37.956;23.722;2023-07-22T08:44:20;36.00;31.20
80212;DHT22;70434;37.956;23.722;2023-07-22T08:46:47;36.00;31.30
80212;DHT22;70434;37.956;23.722;2023-07-22T08:49:15;36.10;31.30
80212;DHT22;70434;37.956;23.722;2023-07-22T08:51:41;36.20;31.30
80212;DHT22;70434;37.956;23.722;2023-07-22T08:54:08;36.20;31.50
80212;DHT22;70434;37.956;23.722;2023-07-22T08:56:34;36.20;31.00
80212;DHT22;70434;37.956;23.722;2023-07-22T08:59:01;36.20;31.00
80212;DHT22;70434;37.956;23.722;2023-07-22T09:01:27;36.20;30.90
80212;DHT22;70434;37.956;23.722;2023-07-22T09:03:54;36.30;31.10
80212;DHT22;70434;37.956;23.722;2023-07-22T09:06:22;36.30;31.40
80212;DHT22;70434;37.956;23.722;2023-07-22T09:08:48;36.40;30.90
80212;DHT22;70434;37.956;23.722;2023-07-22T09:11:15;36.40;30.70
80212;DHT22;70434;37.956;23.722;2023-07-22T09:13:44;36.50;31.00
80212;DHT22;70434;37.956;23.722;2023-07-22T09:16:11;36.40;31.80
80212;DHT22;70434;37.956;23.722;2023-07-22T09:22:00;36.30;30.10
80212;DHT22;70434;37.956;23.722;2023-07-22T09:24:26;36.40;30.00
80212;DHT22;70434;37.956;23.722;2023-07-22T09:26:55;36.40;29.60
80212;DHT22;70434;37.956;23.722;2023-07-22T09:29:38;36.30;29.40
80212;DHT22;70434;37.956;23.722;2023-07-22T09:32:05;36.40;29.20
80212;DHT22;70434;37.956;23.722;2023-07-22T09:34:31;36.40;29.20
80212;DHT22;70434;37.956;23.722;2023-07-22T09:36:58;36.40;29.20
80212;DHT22;70434;37.956;23.722;2023-07-22T09:39:29;36.40;28.90
80212;DHT22;70434;37.956;23.722;2023-07-22T09:41:55;36.50;28.40
80212;DHT22;70434;37.956;23.722;2023-07-22T09:44:22;36.60;28.50
80212;DHT22;70434;37.956;23.722;2023-07-22T09:46:49;36.60;28.50
80212;DHT22;70434;37.956;23.722;2023-07-22T09:49:17;36.70;28.70
80212;DHT22;70434;37.956;23.722;2023-07-22T09:51:43;36.70;28.50
80212;DHT22;70434;37.956;23.722;2023-07-22T09:54:09;36.70;28.40
80212;DHT22;70434;37.956;23.722;2023-07-22T09:56:54;36.80;28.20
80212;DHT22;70434;37.956;23.722;2023-07-22T09:59:21;36.80;28.30
80212;DHT22;70434;37.956;23.722;2023-07-22T10:01:51;36.80;28.30
80212;DHT22;70434;37.956;23.722;2023-07-22T10:04:18;36.90;28.40
80212;DHT22;70434;37.956;23.722;2023-07-22T10:06:46;37.00;28.60
80212;DHT22;70434;37.956;23.722;2023-07-22T10:09:12;37.00;28.60
80212;DHT22;70434;37.956;23.722;2023-07-22T10:11:39;37.10;28.50
80212;DHT22;70434;37.956;23.722;2023-07-22T10:14:05;37.10;28.10
80212;DHT22;70434;37.956;23.722;2023-07-22T10:16:32;37.20;28.70
80212;DHT22;70434;37.956;23.722;2023-07-22T10:18:59;37.10;28.70
80212;DHT22;70434;37.956;23.722;2023-07-22T10:21:25;37.10;28.40
80212;DHT22;70434;37.956;23.722;2023-07-22T10:23:51;37.20;28.30
80212;DHT22;70434;37.956;23.722;2023-07-22T10:26:19;37.20;28.10
80212;DHT22;70434;37.956;23.722;2023-07-22T10:28:46;37.20;28.10
80212;DHT22;70434;37.956;23.722;2023-07-22T10:31:16;37.30;28.40
80212;DHT22;70434;37.956;23.722;2023-07-22T10:33:46;37.40;28.30
80212;DHT22;70434;37.956;23.722;2023-07-22T10:36:14;37.50;27.80
80212;DHT22;70434;37.956;23.722;2023-07-22T10:38:41;37.50;28.00
80212;DHT22;70434;37.956;23.722;2023-07-22T10:41:14;37.50;27.70
80212;DHT22;70434;37.956;23.722;2023-07-22T10:43:57;37.50;27.40
80212;DHT22;70434;37.956;23.722;2023-07-22T10:49:13;37.40;28.00
80212;DHT22;70434;37.956;23.722;2023-07-22T10:51:39;37.50;27.90
80212;DHT22;70434;37.956;23.722;2023-07-22T10:54:11;37.60;27.30
80212;DHT22;70434;37.956;23.722;2023-07-22T10:56:38;37.60;27.20
80212;DHT22;70434;37.956;23.722;2023-07-22T10:59:04;37.70;27.20
80212;DHT22;70434;37.956;23.722;2023-07-22T11:01:34;37.80;27.10
80212;DHT22;70434;37.956;23.722;2023-07-22T11:04:10;37.80;26.90
80212;DHT22;70434;37.956;23.722;2023-07-22T11:06:38;37.90;26.60
80212;DHT22;70434;37.956;23.722;2023-07-22T11:09:05;38.00;26.70
80212;DHT22;70434;37.956;23.722;2023-07-22T11:11:38;38.00;26.50
80212;DHT22;70434;37.956;23.722;2023-07-22T11:14:18;38.00;26.40
80212;DHT22;70434;37.956;23.722;2023-07-22T11:16:46;38.10;26.50
80212;DHT22;70434;37.956;23.722;2023-07-22T11:19:16;38.20;26.50
80212;DHT22;70434;37.956;23.722;2023-07-22T11:21:43;38.30;27.00
80212;DHT22;70434;37.956;23.722;2023-07-22T11:24:09;38.40;27.00
80212;DHT22;70434;37.956;23.722;2023-07-22T11:26:35;38.40;26.70
80212;DHT22;70434;37.956;23.722;2023-07-22T11:29:02;38.50;26.40
80212;DHT22;70434;37.956;23.722;2023-07-22T11:31:32;38.50;26.20
80212;DHT22;70434;37.956;23.722;2023-07-22T11:33:58;38.60;26.20
80212;DHT22;70434;37.956;23.722;2023-07-22T11:36:25;38.70;25.90
80212;DHT22;70434;37.956;23.722;2023-07-22T11:38:50;38.80;25.50
80212;DHT22;70434;37.956;23.722;2023-07-22T11:41:17;38.60;25.60
80212;DHT22;70434;37.956;23.722;2023-07-22T11:43:43;38.70;25.60
80212;DHT22;70434;37.956;23.722;2023-07-22T11:46:09;38.70;25.60
80212;DHT22;70434;37.956;23.722;2023-07-22T11:48:35;38.80;25.50
80212;DHT22;70434;37.956;23.722;2023-07-22T11:51:01;38.70;25.80
80212;DHT22;70434;37.956;23.722;2023-07-22T11:53:27;38.80;25.60
80212;DHT22;70434;37.956;23.722;2023-07-22T11:55:55;38.80;25.20
80212;DHT22;70434;37.956;23.722;2023-07-22T11:58:27;39.00;25.00
80212;DHT22;70434;37.956;23.722;2023-07-22T12:01:07;39.20;24.70
80212;DHT22;70434;37.956;23.722;2023-07-22T12:03:34;39.30;24.50
80212;DHT22;70434;37.956;23.722;2023-07-22T12:06:17;39.30;24.40
80212;DHT22;70434;37.956;23.722;2023-07-22T12:08:45;39.50;24.40
80212;DHT22;70434;37.956;23.722;2023-07-22T12:11:24;39.50;24.40
80212;DHT22;70434;37.956;23.722;2023-07-22T12:14:11;39.60;24.50
80212;DHT22;70434;37.956;23.722;2023-07-22T12:16:39;39.50;24.70
80212;DHT22;70434;37.956;23.722;2023-07-22T12:19:06;39.60;25.50
80212;DHT22;70434;37.956;23.722;2023-07-22T12:21:35;39.60;25.60
80212;DHT22;70434;37.956;23.722;2023-07-22T12:24:01;39.70;25.20
80212;DHT22;70434;37.956;23.722;2023-07-22T12:26:28;39.70;25.30
80212;DHT22;70434;37.956;23.722;2023-07-22T12:28:54;39.70;25.60
80212;DHT22;70434;37.956;23.722;2023-07-22T12:31:20;39.60;25.90
80212;DHT22;70434;37.956;23.722;2023-07-22T12:33:46;39.60;26.10
80212;DHT22;70434;37.956;23.722;2023-07-22T12:36:11;39.60;26.10
80212;DHT22;70434;37.956;23.722;2023-07-22T12:38:37;39.60;25.80
80212;DHT22;70434;37.956;23.722;2023-07-22T12:41:03;39.70;25.80
80212;DHT22;70434;37.956;23.722;2023-07-22T12:43:30;39.70;25.90
80212;DHT22;70434;37.956;23.722;2023-07-22T12:45:56;39.70;26.20
80212;DHT22;70434;37.956;23.722;2023-07-22T12:48:22;39.60;26.80
80212;DHT22;70434;37.956;23.722;2023-07-22T12:50:50;39.60;27.00
80212;DHT22;70434;37.956;23.722;2023-07-22T12:53:16;39.60;27.20
80212;DHT22;70434;37.956;23.722;2023-07-22T12:55:41;39.70;27.50
80212;DHT22;70434;37.956;23.722;2023-07-22T12:58:07;39.80;27.10
80212;DHT22;70434;37.956;23.722;2023-07-22T13:00:33;39.80;27.00
80212;DHT22;70434;37.956;23.722;2023-07-22T13:02:59;39.90;27.10
80212;DHT22;70434;37.956;23.722;2023-07-22T13:05:25;39.90;27.10
80212;DHT22;70434;37.956;23.722;2023-07-22T13:07:50;40.00;27.30
80212;DHT22;70434;37.956;23.722;2023-07-22T13:10:16;40.00;28.10
80212;DHT22;70434;37.956;23.722;2023-07-22T13:12:45;40.00;28.70
80212;DHT22;70434;37.956;23.722;2023-07-22T13:15:11;40.00;29.10
80212;DHT22;70434;37.956;23.722;2023-07-22T13:17:37;40.00;29.90
80212;DHT22;70434;37.956;23.722;2023-07-22T13:20:06;40.00;30.10
80212;DHT22;70434;37.956;23.722;2023-07-22T13:22:39;39.90;30.10
80212;DHT22;70434;37.956;23.722;2023-07-22T13:25:06;39.80;30.90
80212;DHT22;70434;37.956;23.722;2023-07-22T13:27:32;39.80;31.50
80212;DHT22;70434;37.956;23.722;2023-07-22T13:29:58;39.70;31.40
80212;DHT22;70434;37.956;23.722;2023-07-22T13:32:24;39.70;30.70
80212;DHT22;70434;37.956;23.722;2023-07-22T13:34:49;39.70;30.70
80212;DHT22;70434;37.956;23.722;2023-07-22T13:37:15;39.60;30.90
80212;DHT22;70434;37.956;23.722;2023-07-22T13:39:41;39.50;29.20
80212;DHT22;70434;37.956;23.722;2023-07-22T13:42:08;39.30;30.40
80212;DHT22;70434;37.956;23.722;2023-07-22T13:44:34;39.20;29.60
80212;DHT22;70434;37.956;23.722;2023-07-22T13:47:00;39.10;29.80
80212;DHT22;70434;37.956;23.722;2023-07-22T13:49:26;39.20;30.20
80212;DHT22;70434;37.956;23.722;2023-07-22T13:51:52;39.20;30.40
80212;DHT22;70434;37.956;23.722;2023-07-22T13:54:17;39.30;30.00
80212;DHT22;70434;37.956;23.722;2023-07-22T13:56:45;39.40;29.90
80212;DHT22;70434;37.956;23.722;2023-07-22T13:59:13;39.60;29.80
80212;DHT22;70434;37.956;23.722;2023-07-22T14:01:39;39.50;29.60
80212;DHT22;70434;37.956;23.722;2023-07-22T14:04:05;39.50;29.50
80212;DHT22;70434;37.956;23.722;2023-07-22T14:06:31;39.60;29.20
80212;DHT22;70434;37.956;23.722;2023-07-22T14:08:58;39.60;28.40
80212;DHT22;70434;37.956;23.722;2023-07-22T14:11:24;39.70;27.80
80212;DHT22;70434;37.956;23.722;2023-07-22T14:13:49;39.70;27.80
80212;DHT22;70434;37.956;23.722;2023-07-22T14:16:17;39.60;28.00
80212;DHT22;70434;37.956;23.722;2023-07-22T14:18:43;39.60;28.00
80212;DHT22;70434;37.956;23.722;2023-07-22T14:21:09;39.50;28.00
80212;DHT22;70434;37.956;23.722;2023-07-22T14:23:39;39.40;28.50
80212;DHT22;70434;37.956;23.722;2023-07-22T14:26:05;39.50;28.40
80212;DHT22;70434;37.956;23.722;2023-07-22T14:28:31;39.60;28.30
80212;DHT22;70434;37.956;23.722;2023-07-22T14:30:56;39.60;28.00
80212;DHT22;70434;37.956;23.722;2023-07-22T14:33:22;39.60;28.10
80212;DHT22;70434;37.956;23.722;2023-07-22T14:35:49;39.60;27.50
80212;DHT22;70434;37.956;23.722;2023-07-22T14:38:15;39.50;28.10
80212;DHT22;70434;37.956;23.722;2023-07-22T14:40:41;39.50;27.30
80212;DHT22;70434;37.956;23.722;2023-07-22T14:43:07;39.60;27.10
80212;DHT22;70434;37.956;23.722;2023-07-22T14:45:32;39.80;27.50
80212;DHT22;70434;37.956;23.722;2023-07-22T14:47:58;40.00;26.70
80212;DHT22;70434;37.956;23.722;2023-07-22T14:50:25;40.00;26.80
80212;DHT22;70434;37.956;23.722;2023-07-22T14:52:50;40.20;26.90
80212;DHT22;70434;37.956;23.722;2023-07-22T14:55:17;40.30;26.60
80212;DHT22;70434;37.956;23.722;2023-07-22T14:57:42;40.40;26.40
80212;DHT22;70434;37.956;23.722;2023-07-22T15:00:08;40.60;26.30
80212;DHT22;70434;37.956;23.722;2023-07-22T15:02:35;40.60;26.00
80212;DHT22;70434;37.956;23.722;2023-07-22T15:05:01;40.60;26.10
80212;DHT22;70434;37.956;23.722;2023-07-22T15:07:27;40.50;26.50
80212;DHT22;70434;37.956;23.722;2023-07-22T15:09:53;40.50;26.90
80212;DHT22;70434;37.956;23.722;2023-07-22T15:12:20;40.40;27.40
80212;DHT22;70434;37.956;23.722;2023-07-22T15:14:46;40.20;27.70
80212;DHT22;70434;37.956;23.722;2023-07-22T15:17:12;40.00;27.20
80212;DHT22;70434;37.956;23.722;2023-07-22T15:19:37;40.00;27.30
80212;DHT22;70434;37.956;23.722;2023-07-22T15:22:03;40.00;27.90
80212;DHT22;70434;37.956;23.722;2023-07-22T15:24:29;39.60;29.10
80212;DHT22;70434;37.956;23.722;2023-07-22T15:26:55;39.50;29.30